Time;durP1;ratioP1;P1;durP2;ratioP2;P2;SDS_P1;SDS_P2;PMS_P1;PMS_P2;Temp;Humidity;BMP_temperature;BMP_pressure;BME280_temperature;BME280_humidity;BME280_pressure;Samples;Min_cycle;Max_cycle;Signal;HPM_P1;HPM_P2
2022/11/01 00:01:58;;;;;;;7.65;2.78;;;27.90;93.60;;;;;;4942131;29;20220;-42
2022/11/01 00:04:25;;;;;;;7.65;2.58;;;27.90;93.70;;;;;;4943798;29;21314;-46
2022/11/01 00:06:52;;;;;;;21.48;2.70;;;27.90;93.60;;;;;;4946982;29;20027;-50
2022/11/01 00:09:19;;;;;;;5.55;2.58;;;27.90;93.60;;;;;;4945747;29;20028;-43
2022/11/01 00:11:45;;;;;;;4.60;2.30;;;27.80;93.60;;;;;;4946706;29;20220;-44
2022/11/01 00:14:14;;;;;;;4.47;2.40;;;27.80;93.50;;;;;;4950838;29;20037;-45
2022/11/01 00:16:41;;;;;;;5.38;2.92;;;27.80;93.60;;;;;;4946136;29;20027;-44
2022/11/01 00:19:09;;;;;;;20.95;3.10;;;27.80;93.50;;;;;;4947336;29;20011;-49
2022/11/01 00:21:36;;;;;;;4.90;2.42;;;27.80;93.40;;;;;;4946452;29;20335;-43
2022/11/01 00:24:03;;;;;;;15.07;2.58;;;27.80;93.40;;;;;;4946621;29;20384;-45
2022/11/01 00:26:31;;;;;;;4.95;2.47;;;27.80;93.50;;;;;;4947309;29;20087;-45
2022/11/01 00:28:57;;;;;;;7.68;2.35;;;27.80;93.50;;;;;;4930875;29;20329;-42
2022/11/01 00:31:24;;;;;;;7.10;2.30;;;27.80;93.50;;;;;;4947503;29;20031;-42
2022/11/01 00:33:52;;;;;;;8.43;2.30;;;27.70;93.40;;;;;;4947363;29;20088;-45
2022/11/01 00:36:19;;;;;;;7.30;2.13;;;27.70;93.40;;;;;;4947310;29;20024;-45
2022/11/01 00:38:50;;;;;;;5.22;2.05;;;27.70;93.40;;;;;;4946623;29;20141;-42
2022/11/01 00:41:18;;;;;;;4.90;2.13;;;27.70;93.30;;;;;;4947421;29;20091;-43
2022/11/01 00:43:47;;;;;;;9.18;2.10;;;27.70;93.40;;;;;;4947233;29;20019;-45
2022/11/01 00:46:14;;;;;;;4.68;1.95;;;27.60;93.40;;;;;;4946575;29;20099;-44
2022/11/01 00:48:41;;;;;;;3.88;2.20;;;27.60;93.30;;;;;;4946284;29;20107;-47
2022/11/01 00:51:08;;;;;;;7.47;2.53;;;27.60;93.40;;;;;;4948560;29;20031;-43
2022/11/01 00:53:34;;;;;;;7.38;3.22;;;27.60;93.40;;;;;;4953571;29;20031;-43
2022/11/01 00:56:04;;;;;;;3.63;2.33;;;27.60;93.30;;;;;;4950566;29;20236;-42
2022/11/01 00:58:31;;;;;;;8.10;2.20;;;27.60;93.30;;;;;;4946316;29;20031;-43
2022/11/01 01:00:58;;;;;;;4.10;2.13;;;27.60;93.30;;;;;;4946954;29;20062;-43
2022/11/01 01:03:25;;;;;;;5.57;2.15;;;27.60;93.30;;;;;;4946471;29;20016;-43
2022/11/01 01:05:52;;;;;;;4.93;2.00;;;27.60;93.60;;;;;;4946825;29;20147;-42
2022/11/01 01:08:19;;;;;;;5.97;2.65;;;27.50;93.50;;;;;;4945963;29;20023;-43
2022/11/01 01:10:46;;;;;;;4.43;2.60;;;27.60;93.50;;;;;;4946200;29;20219;-42
2022/11/01 01:13:13;;;;;;;8.77;2.95;;;27.60;93.50;;;;;;4946383;29;20024;-45
2022/11/01 01:15:39;;;;;;;3.90;2.85;;;27.60;93.40;;;;;;4946483;29;20035;-44
2022/11/01 01:18:06;;;;;;;5.15;2.40;;;27.60;93.40;;;;;;4946052;29;20015;-43
2022/11/01 01:20:34;;;;;;;4.88;2.22;;;27.60;93.40;;;;;;4945290;29;20051;-42
2022/11/01 01:23:00;;;;;;;4.90;2.42;;;27.50;93.50;;;;;;4945589;29;20046;-46
2022/11/01 01:25:27;;;;;;;7.00;2.60;;;27.50;93.50;;;;;;4932140;29;20039;-42
2022/11/01 01:27:55;;;;;;;7.30;3.08;;;27.50;93.50;;;;;;4942216;29;20043;-43
2022/11/01 01:30:22;;;;;;;7.15;2.72;;;27.50;93.50;;;;;;4945624;29;20034;-41
2022/11/01 01:32:48;;;;;;;10.38;2.92;;;27.50;93.40;;;;;;4945703;29;20031;-42
2022/11/01 01:35:15;;;;;;;6.55;3.45;;;27.50;93.30;;;;;;4946098;29;20035;-47
2022/11/01 01:37:41;;;;;;;6.75;3.22;;;27.50;93.30;;;;;;4946059;29;20094;-42
2022/11/01 01:40:08;;;;;;;5.03;3.50;;;27.50;93.30;;;;;;4943763;29;20024;-41
2022/11/01 01:42:40;;;;;;;4.90;2.70;;;27.50;93.30;;;;;;4945896;29;20038;-41
2022/11/01 01:45:16;;;;;;;4.55;2.92;;;27.60;93.20;;;;;;4946175;29;20095;-42
2022/11/01 01:47:46;;;;;;;6.28;2.42;;;27.50;93.20;;;;;;4946214;29;20052;-42
2022/11/01 01:50:30;;;;;;;6.18;2.63;;;27.60;93.20;;;;;;4965118;29;20105;-42
2022/11/01 01:52:59;;;;;;;5.88;2.50;;;27.50;93.20;;;;;;4944810;29;20046;-41
2022/11/01 01:55:34;;;;;;;9.13;2.85;;;27.50;93.20;;;;;;4945689;29;20035;-41
2022/11/01 01:58:01;;;;;;;9.35;2.55;;;27.50;93.20;;;;;;4946201;29;20031;-44
2022/11/01 02:00:28;;;;;;;9.40;2.70;;;27.50;93.10;;;;;;4945785;29;20279;-43
2022/11/01 02:02:55;;;;;;;6.38;2.60;;;27.60;93.20;;;;;;4946070;29;20053;-44
2022/11/01 02:05:24;;;;;;;7.75;2.90;;;27.60;93.10;;;;;;4949437;29;20315;-51
2022/11/01 02:07:51;;;;;;;4.90;2.30;;;27.60;93.20;;;;;;4949721;29;20227;-41
2022/11/01 02:10:19;;;;;;;6.05;2.53;;;27.60;93.20;;;;;;4949357;29;20151;-41
2022/11/01 02:12:49;;;;;;;7.40;2.67;;;27.60;93.20;;;;;;4949113;29;20074;-42
2022/11/01 02:15:20;;;;;;;4.45;2.50;;;27.60;93.20;;;;;;4948856;29;20227;-46
2022/11/01 02:18:17;;;;;;;5.88;2.40;;;27.60;93.20;;;;;;4949040;29;20282;-43
2022/11/01 02:21:12;;;;;;;6.88;2.60;;;27.60;93.20;;;;;;4946096;29;20115;-43
2022/11/01 02:24:10;;;;;;;7.18;2.67;;;27.70;93.20;;;;;;4948634;29;20023;-44
2022/11/01 02:27:00;;;;;;;5.18;2.35;;;27.60;93.30;;;;;;4950282;29;20207;-51
2022/11/01 02:29:39;;;;;;;6.95;2.20;;;27.60;93.30;;;;;;4949444;29;20035;-42
2022/11/01 02:32:30;;;;;;;5.57;2.05;;;27.60;93.30;;;;;;4948203;29;20047;-46
2022/11/01 02:35:05;;;;;;;8.38;2.30;;;27.60;93.30;;;;;;4930429;29;20095;-44
2022/11/01 02:37:44;;;;;;;5.93;2.38;;;27.60;93.30;;;;;;4930436;29;20342;-42
2022/11/01 02:40:42;;;;;;;5.30;1.73;;;27.60;93.30;;;;;;4930573;29;20036;-42
2022/11/01 02:43:19;;;;;;;7.07;1.88;;;27.60;93.30;;;;;;4930295;29;20081;-43
2022/11/01 02:45:50;;;;;;;4.78;2.45;;;27.60;93.40;;;;;;4930642;29;20039;-45
2022/11/01 02:48:22;;;;;;;5.43;2.90;;;27.60;93.30;;;;;;4929974;29;20043;-43
2022/11/01 02:50:55;;;;;;;7.20;2.90;;;27.60;93.30;;;;;;4930541;29;20044;-45
2022/11/01 02:53:22;;;;;;;6.30;2.70;;;27.60;93.40;;;;;;4930099;29;20043;-42
2022/11/01 02:55:52;;;;;;;5.88;2.30;;;27.60;93.30;;;;;;4930372;29;20103;-43
2022/11/01 02:58:30;;;;;;;4.85;2.17;;;27.60;93.40;;;;;;4940166;29;20249;-42
2022/11/01 03:00:57;;;;;;;6.35;2.70;;;27.60;93.30;;;;;;4949143;29;20036;-42
2022/11/01 03:03:30;;;;;;;5.90;2.83;;;27.60;93.10;;;;;;4948984;29;20043;-49
2022/11/01 03:06:00;;;;;;;6.75;3.30;;;27.60;93.10;;;;;;4949308;29;20031;-46
2022/11/01 03:08:47;;;;;;;4.68;2.88;;;27.60;93.10;;;;;;4949160;29;20340;-42
2022/11/01 03:11:18;;;;;;;4.93;3.13;;;27.60;93.00;;;;;;4949351;29;20043;-42
2022/11/01 03:14:35;;;;;;;6.15;3.30;;;27.60;93.00;;;;;;4948621;29;20095;-43
2022/11/01 03:17:08;;;;;;;15.75;3.28;;;27.60;93.00;;;;;;4947488;29;20286;-43
2022/11/01 03:19:34;;;;;;;;;;;27.60;93.00;;;;;;4949236;29;20027;-42
2022/11/01 03:22:27;;;;;;;5.68;3.20;;;27.60;93.00;;;;;;4948564;29;19908;-42
2022/11/01 03:25:38;;;;;;;4.82;3.58;;;27.50;93.00;;;;;;4941742;29;20055;-43
2022/11/01 03:27:59;;;;;;;8.60;4.35;;;27.50;93.10;;;;;;4948503;29;20032;-41
2022/11/01 03:30:27;;;;;;;7.60;4.40;;;27.50;93.00;;;;;;4948694;29;20103;-42
2022/11/01 03:32:56;;;;;;;6.32;3.92;;;27.50;93.00;;;;;;4948659;29;20339;-45
2022/11/01 03:35:28;;;;;;;8.60;4.30;;;27.50;93.00;;;;;;4948563;29;20035;-43
2022/11/01 03:37:59;;;;;;;8.55;4.22;;;27.50;93.00;;;;;;4948415;29;20090;-44
2022/11/01 03:40:28;;;;;;;9.02;4.30;;;27.50;93.00;;;;;;4948611;29;20328;-42
2022/11/01 03:43:00;;;;;;;6.70;3.70;;;27.50;92.90;;;;;;4948225;29;20031;-46
2022/11/01 03:45:28;;;;;;;6.78;3.42;;;27.50;92.90;;;;;;4948689;29;20212;-43
2022/11/01 03:47:55;;;;;;;6.43;3.40;;;27.50;92.80;;;;;;4948384;29;20103;-44
2022/11/01 03:50:24;;;;;;;6.70;3.42;;;27.50;92.80;;;;;;4948277;29;20220;-43
2022/11/01 03:52:51;;;;;;;9.23;3.53;;;27.40;92.70;;;;;;4948424;29;20023;-42
2022/11/01 03:55:19;;;;;;;4.55;2.88;;;27.40;92.70;;;;;;4946818;29;20034;-42
2022/11/01 03:57:57;;;;;;;5.68;3.08;;;27.50;92.70;;;;;;4947992;29;20023;-42
2022/11/01 04:00:25;;;;;;;6.25;2.63;;;27.40;92.60;;;;;;4948303;29;20058;-46
2022/11/01 04:02:53;;;;;;;8.38;2.85;;;27.40;92.60;;;;;;4948026;29;20082;-43
2022/11/01 04:05:22;;;;;;;3.25;2.67;;;27.40;92.70;;;;;;4948055;29;20062;-42
2022/11/01 04:07:50;;;;;;;4.35;2.70;;;27.40;92.80;;;;;;4947905;29;20082;-42
2022/11/01 04:10:17;;;;;;;6.95;2.90;;;27.40;92.80;;;;;;4947906;29;20028;-43
2022/11/01 04:12:46;;;;;;;5.25;4.13;;;27.40;92.90;;;;;;4947836;29;20252;-42
2022/11/01 04:21:01;;;;;;;8.23;3.53;;;27.30;93.40;;;;;;4947914;29;20299;-44
2022/11/01 04:23:32;;;;;;;6.38;3.20;;;27.30;93.20;;;;;;4947725;29;20040;-42
2022/11/01 04:25:59;;;;;;;7.35;2.83;;;27.30;93.20;;;;;;4947500;29;20028;-42
2022/11/01 04:28:25;;;;;;;24.30;5.10;;;27.30;93.20;;;;;;4947561;29;20031;-43
2022/11/01 04:30:52;;;;;;;6.45;3.47;;;27.30;93.20;;;;;;4948024;29;20083;-42
2022/11/01 04:33:18;;;;;;;6.53;2.78;;;27.30;93.30;;;;;;4947362;29;20023;-42
2022/11/01 04:35:46;;;;;;;7.50;2.72;;;27.30;93.40;;;;;;4947518;29;20036;-42
2022/11/01 04:38:13;;;;;;;7.50;2.70;;;27.30;93.10;;;;;;4947335;29;20047;-45
2022/11/01 04:40:41;;;;;;;5.60;2.53;;;27.30;93.10;;;;;;4947343;29;20115;-40
2022/11/01 04:43:09;;;;;;;4.35;2.10;;;27.30;93.00;;;;;;4947151;29;20211;-41
2022/11/01 04:45:35;;;;;;;7.63;2.28;;;27.30;93.00;;;;;;4947490;29;20039;-42
2022/11/01 04:48:12;;;;;;;4.82;1.80;;;27.30;93.00;;;;;;4947261;29;20054;-43
2022/11/01 04:50:40;;;;;;;37.88;3.42;;;27.30;93.00;;;;;;4947130;29;20094;-41
2022/11/01 04:53:08;;;;;;;10.45;2.53;;;27.30;92.90;;;;;;4946966;29;20063;-44
2022/11/01 04:55:35;;;;;;;3.15;1.70;;;27.30;92.90;;;;;;4946979;29;20023;-43
2022/11/01 04:58:02;;;;;;;8.40;2.10;;;27.30;92.90;;;;;;4946888;29;20059;-44
2022/11/01 05:00:28;;;;;;;4.28;2.17;;;27.30;93.00;;;;;;4947170;29;20035;-41
2022/11/01 05:03:06;;;;;;;6.13;1.90;;;27.30;93.00;;;;;;4946867;29;20090;-42
2022/11/01 05:05:34;;;;;;;2.83;1.50;;;27.30;92.90;;;;;;4947076;29;20094;-42
2022/11/01 05:08:09;;;;;;;5.70;1.58;;;27.30;92.90;;;;;;4946940;29;20042;-41
2022/11/01 05:10:38;;;;;;;9.48;1.70;;;27.30;92.80;;;;;;4947095;29;20043;-41
2022/11/01 05:13:04;;;;;;;6.13;1.90;;;27.30;92.80;;;;;;4946817;29;20075;-42
2022/11/01 05:15:32;;;;;;;5.65;1.63;;;27.30;92.80;;;;;;4946900;29;20032;-44
2022/11/01 05:17:58;;;;;;;3.75;1.55;;;27.30;92.80;;;;;;4946984;29;20059;-45
2022/11/01 05:20:25;;;;;;;5.45;1.70;;;27.30;92.90;;;;;;4946793;29;20027;-50
2022/11/01 05:22:52;;;;;;;6.50;1.80;;;27.30;92.80;;;;;;4946481;29;20028;-42
2022/11/01 05:25:18;;;;;;;4.50;1.75;;;27.30;92.90;;;;;;4946835;29;20039;-42
2022/11/01 05:27:45;;;;;;;5.32;1.70;;;27.30;92.90;;;;;;4946549;29;20216;-41
2022/11/01 05:30:13;;;;;;;4.97;1.50;;;27.30;92.90;;;;;;4946665;29;20071;-45
2022/11/01 05:32:39;;;;;;;3.85;1.63;;;27.30;92.90;;;;;;4946493;29;20027;-39
2022/11/01 05:35:06;;;;;;;4.85;1.52;;;27.30;93.00;;;;;;4946597;29;20036;-39
2022/11/01 05:37:34;;;;;;;4.03;1.73;;;27.30;93.00;;;;;;4945996;29;20082;-38
2022/11/01 05:40:02;;;;;;;3.58;1.63;;;27.30;93.00;;;;;;4946502;29;20216;-39
2022/11/01 05:42:28;;;;;;;4.35;1.60;;;27.20;92.90;;;;;;4946179;29;20020;-41
2022/11/01 05:44:55;;;;;;;4.20;1.45;;;27.20;92.90;;;;;;4946534;29;20031;-42
2022/11/01 05:47:21;;;;;;;5.80;1.95;;;27.30;92.80;;;;;;4946134;29;20032;-46
2022/11/01 05:49:48;;;;;;;6.97;2.08;;;27.20;92.80;;;;;;4946281;29;20280;-42
2022/11/01 05:52:14;;;;;;;4.28;1.80;;;27.20;92.70;;;;;;4946461;29;20066;-42
2022/11/01 05:54:41;;;;;;;6.38;1.75;;;27.20;92.60;;;;;;4946021;29;20327;-42
2022/11/01 05:57:07;;;;;;;4.75;1.60;;;27.20;92.60;;;;;;4946343;29;20036;-44
2022/11/01 05:59:34;;;;;;;4.53;1.58;;;27.30;92.60;;;;;;4946246;29;20320;-43
2022/11/01 06:02:01;;;;;;;4.80;1.80;;;27.20;92.50;;;;;;4946250;29;20019;-43
2022/11/01 06:04:27;;;;;;;4.85;1.85;;;27.20;92.50;;;;;;4946417;29;20035;-41
2022/11/01 06:06:54;;;;;;;7.30;1.90;;;27.20;92.70;;;;;;4944475;29;20058;-43
2022/11/01 06:09:20;;;;;;;6.18;2.08;;;27.20;92.50;;;;;;4927276;29;20039;-47
2022/11/01 06:11:47;;;;;;;5.63;1.90;;;27.20;92.50;;;;;;4927154;29;20224;-44
2022/11/01 06:14:13;;;;;;;7.43;2.30;;;27.20;92.40;;;;;;4927247;29;20027;-44
2022/11/01 06:16:40;;;;;;;9.25;1.92;;;27.20;92.40;;;;;;4927460;29;20274;-42
2022/11/01 06:19:07;;;;;;;6.40;2.30;;;27.20;92.30;;;;;;4927221;29;20060;-41
2022/11/01 06:21:34;;;;;;;9.85;2.03;;;27.20;92.30;;;;;;4927655;29;20043;-42
2022/11/01 06:24:01;;;;;;;5.18;2.10;;;27.20;92.30;;;;;;4926986;29;20359;-45
2022/11/01 06:26:27;;;;;;;6.82;2.35;;;27.20;92.30;;;;;;4927535;29;20076;-42
2022/11/01 06:28:54;;;;;;;6.13;2.30;;;27.20;92.30;;;;;;4926891;29;20044;-47
2022/11/01 06:31:21;;;;;;;2.83;1.80;;;27.10;92.30;;;;;;4927332;29;20028;-42
2022/11/01 06:33:50;;;;;;;14.90;2.60;;;27.10;92.20;;;;;;4927074;29;20036;-46
2022/11/01 06:36:16;;;;;;;9.93;2.47;;;27.20;92.20;;;;;;4927441;29;20032;-46
2022/11/01 06:38:43;;;;;;;5.90;2.20;;;27.10;92.20;;;;;;4926834;29;20020;-48
2022/11/01 06:41:09;;;;;;;4.00;1.90;;;27.10;92.20;;;;;;4927550;29;20060;-43
2022/11/01 06:43:36;;;;;;;8.43;2.35;;;27.10;92.10;;;;;;4926871;29;20020;-47
2022/11/01 06:46:02;;;;;;;4.85;1.95;;;27.10;92.10;;;;;;4927068;29;20075;-45
2022/11/01 06:48:29;;;;;;;6.75;2.38;;;27.10;92.10;;;;;;4927003;29;20044;-45
2022/11/01 06:50:56;;;;;;;3.97;2.17;;;27.10;92.10;;;;;;4930590;29;20083;-42
2022/11/01 06:53:25;;;;;;;5.35;1.90;;;27.10;92.10;;;;;;4930087;29;20232;-43
2022/11/01 06:55:52;;;;;;;9.15;1.90;;;27.10;92.10;;;;;;4930368;29;20028;-45
2022/11/01 06:58:18;;;;;;;4.28;1.77;;;27.10;92.10;;;;;;4930446;29;20047;-47
2022/11/01 07:00:45;;;;;;;5.55;1.77;;;27.10;92.10;;;;;;4930202;29;20032;-44
2022/11/01 07:03:13;;;;;;;8.13;1.83;;;27.10;92.20;;;;;;4930192;29;20051;-45
2022/11/01 07:05:40;;;;;;;3.47;2.00;;;27.10;92.10;;;;;;4930280;29;20122;-41
2022/11/01 07:08:11;;;;;;;11.85;2.22;;;27.10;92.10;;;;;;4929883;29;20024;-43
2022/11/01 07:10:41;;;;;;;4.85;1.70;;;27.10;92.10;;;;;;4930338;29;20032;-48
2022/11/01 07:13:12;;;;;;;9.27;1.92;;;27.10;92.10;;;;;;4929903;29;20044;-41
2022/11/01 07:15:40;;;;;;;3.95;1.88;;;27.10;92.10;;;;;;4929922;29;20031;-41
2022/11/01 07:18:07;;;;;;;4.63;1.80;;;27.10;92.10;;;;;;4929815;29;20047;-42
2022/11/01 07:20:40;;;;;;;2.97;1.70;;;27.10;92.10;;;;;;4929932;29;20347;-42
2022/11/01 07:23:11;;;;;;;4.05;1.70;;;27.10;92.10;;;;;;4929583;29;20027;-42
2022/11/01 07:25:37;;;;;;;5.10;1.98;;;27.00;92.10;;;;;;4929841;29;20035;-41
2022/11/01 07:28:04;;;;;;;5.22;1.90;;;27.00;92.00;;;;;;4929766;29;20091;-48
2022/11/01 07:30:31;;;;;;;6.30;1.75;;;27.10;92.00;;;;;;4929944;29;20039;-47
2022/11/01 07:33:00;;;;;;;3.92;1.77;;;27.00;92.00;;;;;;4929732;29;20280;-42
2022/11/01 07:35:27;;;;;;;4.72;2.17;;;27.00;92.00;;;;;;4929679;29;20072;-45
2022/11/01 07:37:57;;;;;;;5.40;1.73;;;27.00;92.00;;;;;;4929687;29;20266;-43
2022/11/01 07:40:26;;;;;;;7.15;1.75;;;27.00;92.00;;;;;;4929544;29;20028;-41
2022/11/01 07:42:55;;;;;;;3.88;1.70;;;27.00;92.00;;;;;;4946867;29;20058;-45
2022/11/01 07:45:22;;;;;;;6.07;1.90;;;27.00;92.00;;;;;;4948354;29;20019;-42
2022/11/01 07:47:49;;;;;;;7.43;2.30;;;27.00;92.10;;;;;;4948379;29;20193;-42
2022/11/01 07:50:16;;;;;;;4.18;2.00;;;27.00;92.10;;;;;;4948122;29;20325;-41
2022/11/01 07:52:43;;;;;;;9.13;2.25;;;27.00;92.10;;;;;;4948880;29;20023;-48
2022/11/01 07:55:10;;;;;;;4.82;2.25;;;27.00;92.20;;;;;;4948242;29;20307;-43
2022/11/01 07:57:40;;;;;;;6.43;2.20;;;27.00;92.30;;;;;;4948364;29;20016;-51
2022/11/01 08:00:08;;;;;;;4.57;2.47;;;27.00;92.30;;;;;;4948000;29;20035;-40
2022/11/01 08:02:35;;;;;;;7.78;2.40;;;27.00;92.30;;;;;;4947947;29;20019;-40
2022/11/01 08:05:01;;;;;;;5.93;2.20;;;27.00;92.40;;;;;;4948092;29;20219;-40
2022/11/01 08:07:28;;;;;;;3.92;1.88;;;27.00;92.40;;;;;;4948381;29;20024;-41
2022/11/01 08:09:54;;;;;;;3.63;2.22;;;27.00;92.40;;;;;;4948157;29;20030;-51
2022/11/01 08:12:21;;;;;;;3.95;2.05;;;27.00;92.50;;;;;;4948144;29;20035;-42
2022/11/01 08:14:47;;;;;;;3.97;2.00;;;27.00;92.50;;;;;;4948018;29;20314;-45
2022/11/01 08:17:14;;;;;;;5.63;2.25;;;27.00;92.50;;;;;;4947676;29;20028;-46
2022/11/01 08:19:40;;;;;;;6.35;2.33;;;27.00;92.50;;;;;;4947674;29;20034;-47
2022/11/01 08:22:07;;;;;;;9.80;2.67;;;26.90;92.50;;;;;;4947895;29;20371;-43
2022/11/01 08:24:33;;;;;;;4.00;2.20;;;27.00;92.60;;;;;;4947782;29;20066;-44
2022/11/01 08:27:02;;;;;;;5.57;2.10;;;26.90;92.40;;;;;;4947654;29;20024;-42
2022/11/01 08:29:28;;;;;;;5.75;2.20;;;27.00;92.50;;;;;;4947672;29;20044;-47
2022/11/01 08:31:55;;;;;;;6.55;2.42;;;27.00;92.60;;;;;;4947648;29;20026;-46
2022/11/01 08:34:21;;;;;;;6.00;2.00;;;27.00;92.60;;;;;;4947307;29;20046;-49
2022/11/01 08:36:48;;;;;;;5.18;2.08;;;27.00;92.60;;;;;;4947399;29;20348;-45
2022/11/01 08:39:14;;;;;;;3.88;2.00;;;27.00;92.50;;;;;;4947557;29;20087;-41
2022/11/01 08:41:41;;;;;;;6.18;2.10;;;27.00;92.50;;;;;;4948138;29;20023;-42
2022/11/01 08:44:08;;;;;;;7.47;1.92;;;27.00;92.50;;;;;;4947410;29;20035;-43
2022/11/01 08:46:34;;;;;;;4.50;1.95;;;27.00;92.50;;;;;;4947774;29;20039;-52
2022/11/01 08:49:01;;;;;;;4.32;1.73;;;26.90;92.50;;;;;;4947212;29;20243;-44
2022/11/01 08:51:28;;;;;;;7.03;2.05;;;26.90;92.60;;;;;;4947586;29;20050;-44
2022/11/01 08:53:57;;;;;;;5.45;1.60;;;27.00;92.60;;;;;;4947105;29;20050;-50
2022/11/01 08:56:26;;;;;;;2.58;1.80;;;27.00;92.60;;;;;;4947502;29;20024;-46
2022/11/01 08:58:54;;;;;;;6.78;2.00;;;26.90;92.60;;;;;;4947197;29;20039;-48
2022/11/01 09:01:22;;;;;;;6.53;1.90;;;27.00;92.70;;;;;;4947357;29;20032;-42
2022/11/01 09:03:49;;;;;;;6.45;1.83;;;27.00;92.80;;;;;;4947068;29;20039;-44
2022/11/01 09:06:16;;;;;;;4.15;1.98;;;27.00;92.80;;;;;;4947297;29;20032;-49
2022/11/01 09:08:42;;;;;;;10.57;1.73;;;27.00;92.80;;;;;;4947107;29;20031;-43
2022/11/01 09:11:09;;;;;;;4.97;1.77;;;27.00;92.80;;;;;;4947282;29;20039;-42
2022/11/01 09:13:36;;;;;;;6.13;2.10;;;27.00;92.90;;;;;;4946122;29;20300;-43
2022/11/01 09:16:08;;;;;;;3.85;1.65;;;27.00;92.90;;;;;;4947319;29;20228;-40
2022/11/01 09:18:34;;;;;;;4.85;1.75;;;26.90;92.80;;;;;;4946938;29;20016;-39
2022/11/01 09:21:01;;;;;;;4.80;1.77;;;26.90;92.90;;;;;;4947232;29;20020;-40
2022/11/01 09:23:28;;;;;;;5.35;1.88;;;26.90;92.90;;;;;;4946475;29;20071;-41
2022/11/01 09:26:01;;;;;;;5.72;1.95;;;26.90;92.90;;;;;;4946998;29;20027;-40
2022/11/01 09:28:29;;;;;;;4.75;1.92;;;26.90;92.90;;;;;;4946738;29;20228;-48
2022/11/01 09:31:00;;;;;;;3.25;1.80;;;26.90;93.00;;;;;;4946879;29;20052;-44
2022/11/01 09:33:26;;;;;;;6.70;2.28;;;26.90;93.00;;;;;;4946435;29;20042;-47
2022/11/01 09:35:53;;;;;;;7.97;2.10;;;26.90;93.30;;;;;;4947069;29;20197;-42
2022/11/01 09:38:20;;;;;;;4.25;1.90;;;26.90;93.00;;;;;;4945816;29;20019;-43
2022/11/01 09:40:51;;;;;;;6.30;2.17;;;26.90;93.00;;;;;;4946639;29;20035;-53
2022/11/01 09:43:22;;;;;;;4.15;1.98;;;26.90;93.10;;;;;;4946631;29;20311;-51
2022/11/01 09:45:57;;;;;;;8.30;2.20;;;26.90;93.00;;;;;;4946632;29;20220;-44
2022/11/01 09:48:27;;;;;;;4.57;1.90;;;26.90;93.00;;;;;;4946322;29;20059;-42
2022/11/01 09:50:57;;;;;;;5.97;2.15;;;26.90;93.10;;;;;;4946885;29;20264;-42
2022/11/01 09:53:27;;;;;;;7.38;2.10;;;26.90;93.10;;;;;;4946198;29;20028;-48
2022/11/01 09:56:11;;;;;;;6.18;1.90;;;26.90;93.10;;;;;;4946495;29;20036;-47
2022/11/01 09:58:57;;;;;;;5.22;2.03;;;26.90;93.20;;;;;;4946059;29;20056;-43
2022/11/01 10:01:49;;;;;;;4.53;1.88;;;26.90;93.20;;;;;;4946671;29;20031;-47
2022/11/01 10:04:28;;;;;;;4.43;2.00;;;26.90;93.20;;;;;;4946922;29;20034;-43
2022/11/01 10:06:54;;;;;;;4.72;1.90;;;26.90;93.20;;;;;;4946277;29;20040;-47
2022/11/01 10:09:43;;;;;;;4.28;1.90;;;26.90;93.20;;;;;;4946042;29;20054;-41
2022/11/01 10:12:34;;;;;;;8.68;2.20;;;26.80;93.20;;;;;;4946241;29;20040;-42
2022/11/01 10:15:09;;;;;;;8.90;2.00;;;26.80;93.20;;;;;;4946122;29;20307;-44
2022/11/01 10:17:50;;;;;;;6.45;2.35;;;26.80;93.20;;;;;;4945983;29;20103;-47
2022/11/01 10:20:20;;;;;;;7.20;2.17;;;26.80;93.20;;;;;;4945581;29;20062;-41
2022/11/01 10:22:49;;;;;;;9.05;2.50;;;26.80;93.30;;;;;;4946053;29;20140;-39
2022/11/01 10:25:32;;;;;;;6.35;2.65;;;26.80;93.30;;;;;;4949367;29;20099;-48
2022/11/01 10:28:16;;;;;;;;;;;26.80;93.30;;;;;;4950576;29;20027;-45
2022/11/01 10:30:52;;;;;;;14.75;4.80;;;26.80;93.40;;;;;;4950067;29;19913;-48
2022/11/01 10:34:04;;;;;;;8.95;4.45;;;26.80;93.30;;;;;;4949412;29;20044;-48
2022/11/01 10:36:35;;;;;;;7.13;4.47;;;26.80;93.50;;;;;;4939323;29;20054;-48
2022/11/01 10:39:34;;;;;;;8.37;4.67;;;26.70;93.30;;;;;;4949571;29;20070;-50
2022/11/01 10:42:08;;;;;;;5.10;4.00;;;26.70;93.30;;;;;;4949374;29;20065;-49
2022/11/01 10:44:42;;;;;;;9.40;4.60;;;26.70;93.30;;;;;;4949199;29;20046;-42
2022/11/01 10:47:15;;;;;;;10.13;5.15;;;26.70;93.20;;;;;;4949556;29;20094;-47
2022/11/01 10:49:54;;;;;;;8.45;5.07;;;26.70;93.20;;;;;;4948734;29;20047;-48
2022/11/01 10:52:25;;;;;;;11.68;4.65;;;26.70;93.10;;;;;;4948530;29;20027;-49
2022/11/01 10:54:52;;;;;;;9.60;4.97;;;26.80;93.20;;;;;;4948324;29;20050;-42
2022/11/01 10:57:40;;;;;;;7.38;4.70;;;26.80;93.20;;;;;;4948930;29;20019;-42
2022/11/01 11:00:15;;;;;;;10.88;4.65;;;26.80;93.10;;;;;;4949288;29;20051;-42
2022/11/01 11:02:51;;;;;;;8.50;3.85;;;26.80;93.10;;;;;;4941823;29;20129;-42
2022/11/01 11:05:19;;;;;;;8.07;3.90;;;26.70;93.10;;;;;;4939679;29;20066;-45
2022/11/01 11:07:46;;;;;;;7.68;3.65;;;26.70;93.10;;;;;;4938994;29;20024;-46
2022/11/01 11:10:23;;;;;;;9.43;3.65;;;26.70;93.00;;;;;;4940388;29;20100;-42
2022/11/01 11:12:56;;;;;;;5.97;3.22;;;26.80;93.10;;;;;;4948654;29;20039;-41
2022/11/01 11:15:48;;;;;;;9.43;3.72;;;26.80;93.20;;;;;;4949331;29;20054;-50
2022/11/01 11:18:29;;;;;;;;;;;26.80;93.20;;;;;;4948128;29;20035;-46
2022/11/01 11:21:03;;;;;;;15.32;3.45;;;26.80;93.10;;;;;;4949060;29;19954;-45
2022/11/01 11:23:33;;;;;;;12.18;2.95;;;26.80;93.10;;;;;;4948884;29;20075;-43
2022/11/01 11:26:12;;;;;;;19.77;3.30;;;27.50;92.70;;;;;;4947752;29;20059;-45
2022/11/01 11:28:43;;;;;;;16.05;3.63;;;27.80;91.80;;;;;;4948967;29;20031;-48
2022/11/01 11:31:23;;;;;;;12.75;2.97;;;27.50;91.90;;;;;;4947256;29;20046;-46
2022/11/01 11:34:05;;;;;;;10.82;2.65;;;27.30;92.10;;;;;;4947048;29;20043;-47
2022/11/01 11:36:40;;;;;;;12.18;2.55;;;27.20;92.30;;;;;;4945084;29;20098;-45
2022/11/01 11:39:22;;;;;;;7.03;2.80;;;27.20;92.50;;;;;;4947051;29;20036;-46
2022/11/01 11:41:48;;;;;;;6.50;2.08;;;27.10;92.60;;;;;;4946999;29;20094;-49
2022/11/01 11:44:33;;;;;;;6.10;2.20;;;27.10;92.70;;;;;;4947016;29;20084;-46
2022/11/01 11:47:01;;;;;;;7.35;2.35;;;27.00;92.70;;;;;;4949255;29;20039;-50
2022/11/01 11:49:28;;;;;;;7.07;2.03;;;27.00;92.70;;;;;;4948822;29;20050;-45
2022/11/01 11:51:55;;;;;;;7.85;2.30;;;27.00;92.80;;;;;;4949151;29;20036;-47
2022/11/01 11:54:30;;;;;;;4.22;2.30;;;27.00;92.90;;;;;;4948833;29;20374;-47
2022/11/01 11:57:28;;;;;;;5.15;2.30;;;27.00;92.90;;;;;;4949040;29;20252;-45
2022/11/01 11:59:58;;;;;;;4.85;2.03;;;27.00;93.00;;;;;;4937945;29;20039;-45
2022/11/01 12:02:37;;;;;;;3.72;2.10;;;27.00;93.00;;;;;;4949035;29;20027;-47
2022/11/01 12:05:17;;;;;;;5.38;2.10;;;27.10;93.10;;;;;;4949085;29;20066;-45
2022/11/01 12:07:54;;;;;;;5.18;2.00;;;27.10;93.10;;;;;;4949077;29;20079;-45
2022/11/01 12:10:32;;;;;;;3.70;2.00;;;27.10;93.10;;;;;;4948984;29;20031;-50
2022/11/01 12:13:00;;;;;;;4.95;2.15;;;27.20;93.10;;;;;;4948572;29;20031;-45
2022/11/01 12:15:29;;;;;;;10.65;2.35;;;27.10;93.30;;;;;;4948770;29;20027;-47
2022/11/01 12:18:06;;;;;;;5.72;2.22;;;27.20;93.10;;;;;;4948864;29;20016;-45
2022/11/01 12:20:38;;;;;;;4.40;1.75;;;27.20;93.20;;;;;;4948827;29;20414;-46
2022/11/01 12:23:10;;;;;;;3.60;2.00;;;27.20;93.20;;;;;;4946086;29;20287;-44
2022/11/01 12:25:41;;;;;;;7.22;2.00;;;27.20;93.20;;;;;;4947280;29;20036;-44
2022/11/01 12:28:25;;;;;;;4.32;1.77;;;27.20;93.20;;;;;;4944223;29;20071;-46
2022/11/01 12:30:59;;;;;;;3.80;2.00;;;27.20;93.30;;;;;;4926877;29;20036;-47
2022/11/01 12:33:53;;;;;;;2.45;1.75;;;27.30;93.40;;;;;;4926660;29;20039;-48
2022/11/01 12:36:29;;;;;;;3.30;1.73;;;27.20;93.40;;;;;;4920491;29;20340;-47
2022/11/01 12:39:30;;;;;;;2.78;1.63;;;27.20;93.30;;;;;;4927209;29;20369;-45
2022/11/01 12:41:59;;;;;;;3.63;2.10;;;27.30;93.40;;;;;;4901496;29;20261;-46
2022/11/01 12:44:45;;;;;;;4.13;1.95;;;27.30;93.50;;;;;;4948969;29;20042;-44
2022/11/01 12:47:32;;;;;;;3.70;1.38;;;27.30;93.50;;;;;;4944638;29;20038;-44
2022/11/01 12:50:22;;;;;;;4.32;2.15;;;27.30;93.50;;;;;;4947081;29;20110;-44
2022/11/01 12:52:53;;;;;;;3.78;1.80;;;27.30;93.50;;;;;;4947062;29;20035;-44
2022/11/01 12:55:23;;;;;;;5.32;1.85;;;27.30;93.40;;;;;;4946921;29;20607;-50
2022/11/01 12:57:50;;;;;;;4.68;1.90;;;27.30;93.40;;;;;;4945846;29;20252;-43
2022/11/01 13:00:20;;;;;;;3.55;1.80;;;27.30;93.50;;;;;;4947291;29;20040;-44
2022/11/01 13:03:01;;;;;;;4.15;1.77;;;27.30;93.40;;;;;;4946848;29;20038;-43
2022/11/01 13:05:42;;;;;;;5.57;1.88;;;27.40;93.40;;;;;;4947345;29;20197;-44
2022/11/01 13:08:15;;;;;;;6.78;2.13;;;27.40;93.40;;;;;;4946320;29;20032;-44
2022/11/01 13:10:46;;;;;;;5.20;2.10;;;27.40;93.40;;;;;;4947238;29;20316;-43
2022/11/01 13:13:17;;;;;;;5.10;2.03;;;27.40;93.40;;;;;;4946857;29;20035;-45
2022/11/01 13:16:08;;;;;;;3.22;1.75;;;27.40;93.40;;;;;;4947144;29;20090;-46